Batavia, NY (14020)

4:53 PM EDT on September 01, 2015 (GMT -0400)
Violet Ln. | | Change Station
CLOSE
Current Station
Personal Weather Station
Location: Batavia, NY
Elevation: 893 ft
Nearby Weather Stations

Elev 893 ft 43.01 °N, 78.15 °W | Updated 33 seconds ago

Partly Cloudy
Partly Cloudy
81.1 °F
Feels Like 83 °F
N
8.7
Wind Variable Wind from SW
Gusts 9.6 mph

Today
High -- | Low -- °F
--% Chance of Precip.
Yesterday
High -- | Low -- °F
Precip. -- in
6:36 AM 7:47 PM
Waning Gibbous, 86% visible
Pressure 30.05 in
Visibility 9.0 miles
Clouds Few 3900 ft
Scattered Clouds 30000 ft
Heat Index 83 °F
Dew Point 65 °F
Humidity 58%
Rainfall 0.00 in
Snow Depth Not available.
UV 4 out of 12
Pollen 10.50 out of 12
Air Quality Not available.
Flu Activity Not available.
METAR KBUF 011954Z 24009KT 9SM FEW039 SCT300 27/18 A3006 RMK AO2 SLP175 T02670178
Pressure 30.05 in
Visibility 9.0 miles
Clouds Few 3900 ft
Scattered Clouds 30000 ft
Heat Index 83 °F
Dew Point 65 °F
Humidity 58%
Rainfall 0.00 in
Snow Depth Not available.
UV 4 out of 12
Pollen 10.50 out of 12
Air Quality Not available.
Flu Activity Not available.
METAR KBUF 011954Z 24009KT 9SM FEW039 SCT300 27/18 A3006 RMK AO2 SLP175 T02670178

10-Day Weather Forecast

×

Almanac

Astronomy

Sep. 01, 2015 Rise Set
Actual Time
Civil Twilight
Nautical Twilight
Astronomical Twilight
Moon
Length of Visible Light
Length of Day
Tomorrow will be .
, % of the Moon is Illuminated

Today's Extremes

State Highs State Lows

Community

WunderPhotos

Upload Photos

1,851,608 photos uploaded!

WunderBlogs® & News

Nearby

Air Quality

  Air Quality AQ Index Pollutant
Not available.

Snow Depth

Station Depth Elevation

Earthquake Activity

City Distance Mag. Time & Date
Minimum magnitude displayed is 2.5.

Coastal Water Temperatures

Place Temperature

Stations

Nearby Weather Stations

Station Location Temp. Windchill Dew Point Humidity Wind Precip. Elev Updated Type